createdAt,value
2017-05-19T00:00:01.813Z,0
2017-05-19T00:01:01.485Z,0
2017-05-19T00:02:02.094Z,0
2017-05-19T00:03:02.426Z,0
2017-05-19T00:04:02.069Z,0
2017-05-19T00:05:01.753Z,0
2017-05-19T00:06:01.422Z,0
2017-05-19T00:07:02.082Z,0
2017-05-19T00:08:02.341Z,0
2017-05-19T00:09:02.321Z,0
2017-05-19T00:10:02.025Z,0
2017-05-19T00:11:01.698Z,0
2017-05-19T00:12:01.982Z,0
2017-05-19T00:13:01.670Z,0
2017-05-19T00:14:02.019Z,0
2017-05-19T00:15:01.766Z,0
2017-05-19T00:16:02.203Z,0
2017-05-19T00:17:02.021Z,0
2017-05-19T00:18:01.564Z,0
2017-05-19T00:19:01.543Z,0
2017-05-19T00:20:01.834Z,0
2017-05-19T00:21:02.114Z,0
2017-05-19T00:22:01.814Z,0
2017-05-19T00:23:02.110Z,0
2017-05-19T00:24:02.077Z,0
2017-05-19T00:25:02.117Z,0
2017-05-19T00:26:01.503Z,0
2017-05-19T00:27:01.726Z,0
2017-05-19T00:28:01.414Z,0
2017-05-19T00:29:01.465Z,0
2017-05-19T00:30:01.396Z,0
2017-05-19T00:31:01.444Z,0
2017-05-19T00:32:01.373Z,0
2017-05-19T00:33:01.704Z,0
2017-05-19T00:34:01.336Z,0
2017-05-19T00:35:01.372Z,0
2017-05-19T00:36:01.604Z,0
2017-05-19T00:37:01.292Z,0
2017-05-19T00:38:01.292Z,0
2017-05-19T00:39:00.960Z,0
2017-05-19T00:40:01.863Z,0
2017-05-19T00:41:01.225Z,0
2017-05-19T00:42:00.916Z,0
2017-05-19T00:43:01.823Z,0
2017-05-19T00:44:01.547Z,0
2017-05-19T00:45:01.783Z,0
2017-05-19T00:46:01.783Z,0
2017-05-19T00:47:01.145Z,0
2017-05-19T00:48:01.131Z,0
2017-05-19T00:49:00.844Z,0
2017-05-19T00:50:01.452Z,0
2017-05-19T00:51:01.515Z,0
2017-05-19T00:52:00.764Z,0
2017-05-19T00:53:01.367Z,0
2017-05-19T00:54:01.052Z,0
2017-05-19T00:55:01.334Z,0
2017-05-19T00:56:01.312Z,0
2017-05-19T00:57:01.607Z,0
2017-05-19T00:58:01.313Z,0
2017-05-19T00:59:01.296Z,0
2017-05-19T01:00:00.654Z,0
2017-05-19T01:01:01.074Z,0
2017-05-19T01:02:01.225Z,0
2017-05-19T01:03:01.385Z,0
2017-05-19T01:04:01.505Z,0
2017-05-19T01:05:01.624Z,0
2017-05-19T01:06:00.894Z,0
2017-05-19T01:07:00.864Z,0
2017-05-19T01:08:01.463Z,0
2017-05-19T01:09:01.203Z,0
2017-05-19T01:10:01.124Z,0
2017-05-19T01:11:01.177Z,0
2017-05-19T01:12:01.463Z,0
2017-05-19T01:13:01.605Z,0
2017-05-19T01:14:00.754Z,0
2017-05-19T01:15:01.044Z,0
2017-05-19T01:16:00.743Z,0
2017-05-19T01:17:00.515Z,0
2017-05-19T01:18:01.004Z,0
2017-05-19T01:19:01.299Z,0
2017-05-19T01:20:00.984Z,0
2017-05-19T01:21:01.068Z,0
2017-05-19T01:22:00.616Z,0
2017-05-19T01:23:00.629Z,0
2017-05-19T01:24:00.624Z,0
2017-05-19T01:25:01.275Z,0
2017-05-19T01:26:00.316Z,0
2017-05-19T01:27:00.268Z,0
2017-05-19T01:28:00.552Z,0
2017-05-19T01:29:00.268Z,0
2017-05-19T01:30:00.844Z,0
2017-05-19T01:31:00.557Z,0
2017-05-19T01:32:00.494Z,0
2017-05-19T01:33:00.473Z,0
2017-05-19T01:34:00.470Z,0
2017-05-19T01:35:00.767Z,0
2017-05-19T01:36:00.444Z,0
2017-05-19T01:37:00.452Z,0
2017-05-19T01:38:00.723Z,0
2017-05-19T01:39:00.702Z,0
2017-05-19T01:40:00.385Z,0
2017-05-19T01:41:00.383Z,0
2017-05-19T01:42:00.360Z,0
2017-05-19T01:43:00.945Z,0
2017-05-19T01:44:00.613Z,0
2017-05-19T01:45:00.617Z,0
2017-05-19T01:46:00.305Z,0
2017-05-19T01:47:00.299Z,0
2017-05-19T01:48:00.945Z,0
2017-05-19T01:49:00.251Z,0
2017-05-19T01:50:00.237Z,0
2017-05-19T01:51:00.243Z,0
2017-05-19T01:52:00.493Z,0
2017-05-19T01:53:00.485Z,0
2017-05-19T01:54:00.815Z,0
2017-05-19T01:55:00.576Z,0
2017-05-19T01:56:00.140Z,0
2017-05-19T01:57:00.764Z,0
2017-05-19T01:58:00.124Z,0
2017-05-19T01:59:00.718Z,0
2017-05-19T02:00:00.707Z,0
2017-05-19T02:01:00.671Z,0
2017-05-19T02:02:00.370Z,0
2017-05-19T02:03:00.370Z,0
2017-05-19T02:04:00.343Z,0
2017-05-19T02:05:00.386Z,0
2017-05-19T02:06:00.302Z,0
2017-05-19T02:06:59.973Z,0
2017-05-19T02:08:00.280Z,0
2017-05-19T02:09:00.274Z,0
2017-05-19T02:10:00.250Z,0
2017-05-19T02:11:00.503Z,0
2017-05-19T02:12:00.206Z,0
2017-05-19T02:13:00.283Z,0
2017-05-19T02:14:00.187Z,0
2017-05-19T02:15:00.483Z,0
2017-05-19T02:16:00.127Z,0
2017-05-19T02:17:00.108Z,0
2017-05-19T02:18:00.105Z,0
2017-05-19T02:19:00.415Z,0
2017-05-19T02:19:59.780Z,0
2017-05-19T02:21:00.377Z,0
2017-05-19T02:22:00.373Z,0
2017-05-19T02:23:00.355Z,0
2017-05-19T02:24:00.326Z,0
2017-05-19T02:25:00.318Z,0
2017-05-19T02:26:00.049Z,0
2017-05-19T02:27:00.302Z,0
2017-05-19T02:28:00.264Z,0
2017-05-19T02:29:00.263Z,0
2017-05-19T02:30:00.248Z,0
2017-05-19T02:30:59.967Z,0
2017-05-19T02:31:59.908Z,0
2017-05-19T02:32:59.270Z,0
2017-05-19T02:34:00.315Z,0
2017-05-19T02:34:59.570Z,0
2017-05-19T02:35:59.915Z,0
2017-05-19T02:37:00.155Z,0
2017-05-19T02:37:59.861Z,0
2017-05-19T02:38:59.925Z,0
2017-05-19T02:39:59.780Z,0
2017-05-19T02:41:00.085Z,0
2017-05-19T02:41:59.435Z,0
2017-05-19T02:42:59.428Z,0
2017-05-19T02:44:00.014Z,0
2017-05-19T02:44:59.811Z,0
2017-05-19T02:45:59.701Z,0
2017-05-19T02:46:59.358Z,0
2017-05-19T02:47:59.654Z,0
2017-05-19T02:48:58.733Z,0
2017-05-19T02:49:59.984Z,0
2017-05-19T02:51:00.022Z,0
2017-05-19T02:51:59.892Z,0
2017-05-19T02:52:59.590Z,0
2017-05-19T02:53:58.991Z,0
2017-05-19T02:54:59.553Z,0
2017-05-19T02:55:59.580Z,0
2017-05-19T02:56:59.839Z,0
2017-05-19T02:57:59.823Z,0
2017-05-19T02:58:59.602Z,0
2017-05-19T02:59:59.780Z,0
2017-05-19T03:00:59.154Z,0
2017-05-19T03:01:59.215Z,0
2017-05-19T03:02:58.813Z,0
2017-05-19T03:03:59.717Z,0
2017-05-19T03:04:59.095Z,0
2017-05-19T03:05:58.771Z,0
2017-05-19T03:06:59.693Z,0
2017-05-19T03:07:59.027Z,0
2017-05-19T03:08:59.337Z,0
2017-05-19T03:09:59.395Z,0
2017-05-19T03:10:59.688Z,0
2017-05-19T03:11:59.386Z,0
2017-05-19T03:12:59.000Z,0
2017-05-19T03:13:59.345Z,0
2017-05-19T03:14:58.932Z,0
2017-05-19T03:15:59.021Z,0
2017-05-19T03:16:59.511Z,0
2017-05-19T03:17:59.609Z,0
2017-05-19T03:18:59.186Z,0
2017-05-19T03:19:59.549Z,0
2017-05-19T03:20:59.203Z,0
2017-05-19T03:21:59.175Z,0
2017-05-19T03:22:58.275Z,0
2017-05-19T03:23:59.168Z,0
2017-05-19T03:24:59.135Z,0
2017-05-19T03:25:59.506Z,0
2017-05-19T03:26:59.056Z,0
2017-05-19T03:27:59.353Z,0
2017-05-19T03:28:59.024Z,0
2017-05-19T03:29:58.705Z,0
2017-05-19T03:30:58.377Z,0
2017-05-19T03:31:58.651Z,0
2017-05-19T03:32:58.777Z,0
2017-05-19T03:33:58.644Z,0
2017-05-19T03:34:58.643Z,0
2017-05-19T03:35:58.628Z,0
2017-05-19T03:36:58.909Z,0
2017-05-19T03:37:58.567Z,0
2017-05-19T03:38:59.198Z,0
2017-05-19T03:39:58.929Z,0
2017-05-19T03:40:58.864Z,0
2017-05-19T03:41:58.834Z,0
2017-05-19T03:42:58.345Z,0
2017-05-19T03:43:59.103Z,0
2017-05-19T03:44:58.229Z,0
2017-05-19T03:45:58.767Z,0
2017-05-19T03:46:58.466Z,0
2017-05-19T03:47:58.413Z,0
2017-05-19T03:48:59.008Z,0
2017-05-19T03:49:59.004Z,0
2017-05-19T03:50:58.708Z,0
2017-05-19T03:51:59.014Z,0
2017-05-19T03:52:58.656Z,0
2017-05-19T03:53:58.978Z,0
2017-05-19T03:54:58.335Z,0
2017-05-19T03:55:58.755Z,0
2017-05-19T03:56:57.985Z,5
2017-05-19T03:57:57.974Z,5
2017-05-19T03:58:57.998Z,5
2017-05-19T03:59:58.851Z,5
2017-05-19T04:00:58.243Z,5
2017-05-19T04:01:58.533Z,5
2017-05-19T04:02:58.511Z,5
2017-05-19T04:03:58.585Z,10
2017-05-19T04:04:58.499Z,10
2017-05-19T04:05:58.755Z,10
2017-05-19T04:06:58.457Z,10
2017-05-19T04:07:58.556Z,10
2017-05-19T04:08:58.407Z,10
2017-05-19T04:09:58.388Z,10
2017-05-19T04:10:58.496Z,10
2017-05-19T04:11:58.059Z,10
2017-05-19T04:12:58.345Z,10
2017-05-19T04:13:58.044Z,10
2017-05-19T04:14:58.055Z,10
2017-05-19T04:15:58.355Z,10
2017-05-19T04:16:57.984Z,10
2017-05-19T04:17:58.255Z,10
2017-05-19T04:18:57.935Z,10
2017-05-19T04:19:57.725Z,10
2017-05-19T04:20:58.540Z,10
2017-05-19T04:21:58.206Z,10
2017-05-19T04:22:57.974Z,10
2017-05-19T04:23:58.171Z,10
2017-05-19T04:24:58.473Z,10
2017-05-19T04:25:58.294Z,10
2017-05-19T04:26:57.868Z,5
2017-05-19T04:27:57.867Z,5
2017-05-19T04:28:57.845Z,5
2017-05-19T04:29:58.375Z,5
2017-05-19T04:30:58.070Z,5
2017-05-19T04:31:58.105Z,10
2017-05-19T04:32:58.085Z,10
2017-05-19T04:33:57.717Z,10
2017-05-19T04:34:58.326Z,10
2017-05-19T04:35:58.104Z,10
2017-05-19T04:36:58.049Z,10
2017-05-19T04:37:57.964Z,10
2017-05-19T04:38:58.264Z,10
2017-05-19T04:39:58.244Z,10
2017-05-19T04:40:57.933Z,10
2017-05-19T04:41:57.910Z,10
2017-05-19T04:42:57.897Z,10
2017-05-19T04:43:57.872Z,10
2017-05-19T04:44:58.289Z,10
2017-05-19T04:45:57.836Z,10
2017-05-19T04:46:57.884Z,10
2017-05-19T04:47:57.874Z,10
2017-05-19T04:48:57.498Z,10
2017-05-19T04:49:57.490Z,15
2017-05-19T04:50:57.774Z,15
2017-05-19T04:51:57.807Z,15
2017-05-19T04:52:57.775Z,20
2017-05-19T04:53:58.164Z,20
2017-05-19T04:54:57.387Z,20
2017-05-19T04:55:58.085Z,20
2017-05-19T04:56:58.031Z,25
2017-05-19T04:57:58.044Z,25
2017-05-19T04:58:57.974Z,25
2017-05-19T04:59:57.946Z,25
2017-05-19T05:00:57.965Z,25
2017-05-19T05:01:57.608Z,25
2017-05-19T05:02:57.672Z,25
2017-05-19T05:03:57.878Z,20
2017-05-19T05:04:57.910Z,20
2017-05-19T05:05:57.236Z,20
2017-05-19T05:06:57.547Z,20
2017-05-19T05:07:57.557Z,20
2017-05-19T05:08:57.827Z,20
2017-05-19T05:09:57.826Z,20
2017-05-19T05:10:57.484Z,15
2017-05-19T05:11:57.125Z,15
2017-05-19T05:12:57.856Z,15
2017-05-19T05:13:57.428Z,15
2017-05-19T05:14:57.698Z,15
2017-05-19T05:15:57.719Z,15
2017-05-19T05:16:57.366Z,15
2017-05-19T05:17:56.806Z,15
2017-05-19T05:18:57.417Z,15
2017-05-19T05:19:57.647Z,15
2017-05-19T05:20:57.444Z,15
2017-05-19T05:21:57.303Z,15
2017-05-19T05:22:57.015Z,15
2017-05-19T05:23:57.448Z,15
2017-05-19T05:24:57.276Z,15
2017-05-19T05:25:57.586Z,15
2017-05-19T05:26:57.236Z,15
2017-05-19T05:27:56.898Z,15
2017-05-19T05:28:57.307Z,15
2017-05-19T05:29:56.565Z,15
2017-05-19T05:30:57.196Z,15
2017-05-19T05:31:57.150Z,15
2017-05-19T05:32:56.876Z,15
2017-05-19T05:33:57.107Z,15
2017-05-19T05:34:56.816Z,15
2017-05-19T05:35:57.397Z,15
2017-05-19T05:36:56.783Z,15
2017-05-19T05:37:56.784Z,15
2017-05-19T05:38:57.406Z,15
2017-05-19T05:39:57.057Z,15
2017-05-19T05:40:57.036Z,15
2017-05-19T05:41:57.315Z,15
2017-05-19T05:42:56.677Z,15
2017-05-19T05:43:56.687Z,15
2017-05-19T05:44:56.347Z,15
2017-05-19T05:45:56.615Z,15
2017-05-19T05:46:56.910Z,20
2017-05-19T05:47:57.217Z,20
2017-05-19T05:48:56.962Z,20
2017-05-19T05:49:57.177Z,20
2017-05-19T05:50:56.839Z,20
2017-05-19T05:51:56.585Z,20
2017-05-19T05:52:57.126Z,20
2017-05-19T05:53:56.827Z,20
2017-05-19T05:54:56.549Z,20
2017-05-19T05:55:57.138Z,20
2017-05-19T05:56:56.757Z,20
2017-05-19T05:57:57.060Z,20
2017-05-19T05:58:56.466Z,20
2017-05-19T05:59:56.706Z,20
2017-05-19T06:00:57.017Z,20
2017-05-19T06:01:56.988Z,20
2017-05-19T06:02:56.416Z,20
2017-05-19T06:03:56.977Z,25
2017-05-19T06:04:56.647Z,25
2017-05-19T06:05:56.616Z,25
2017-05-19T06:06:56.586Z,25
2017-05-19T06:07:55.979Z,25
2017-05-19T06:08:56.276Z,25
2017-05-19T06:09:56.886Z,25
2017-05-19T06:10:55.935Z,25
2017-05-19T06:11:56.830Z,25
2017-05-19T06:12:56.557Z,25
2017-05-19T06:13:56.500Z,25
2017-05-19T06:14:56.177Z,25
2017-05-19T06:15:56.778Z,25
2017-05-19T06:16:56.156Z,25
2017-05-19T06:17:56.431Z,25
2017-05-19T06:18:56.106Z,25
2017-05-19T06:19:56.415Z,25
2017-05-19T06:20:56.701Z,25
2017-05-19T06:21:56.205Z,25
2017-05-19T06:22:56.425Z,30
2017-05-19T06:23:56.644Z,30
2017-05-19T06:24:56.034Z,30
2017-05-19T06:25:56.377Z,30
2017-05-19T06:26:55.994Z,30
2017-05-19T06:27:56.592Z,35
2017-05-19T06:28:55.965Z,35
2017-05-19T06:29:55.994Z,35
2017-05-19T06:30:55.617Z,35
2017-05-19T06:31:55.314Z,40
2017-05-19T06:32:56.206Z,40
2017-05-19T06:33:55.885Z,40
2017-05-19T06:34:56.174Z,40
2017-05-19T06:35:55.875Z,40
2017-05-19T06:36:56.192Z,40
2017-05-19T06:37:55.845Z,40
2017-05-19T06:38:56.191Z,40
2017-05-19T06:39:56.234Z,45
2017-05-19T06:40:55.764Z,45
2017-05-19T06:41:55.813Z,45
2017-05-19T06:42:56.053Z,45
2017-05-19T06:43:56.342Z,45
2017-05-19T06:44:55.406Z,45
2017-05-19T06:45:56.303Z,45
2017-05-19T06:46:55.723Z,45
2017-05-19T06:47:55.684Z,45
2017-05-19T06:48:56.004Z,45
2017-05-19T06:49:55.953Z,45
2017-05-19T06:50:56.037Z,45
2017-05-19T06:51:55.604Z,45
2017-05-19T06:52:56.035Z,45
2017-05-19T06:53:55.950Z,45
2017-05-19T06:54:56.315Z,45
2017-05-19T06:55:55.854Z,45
2017-05-19T06:56:55.853Z,45
2017-05-19T06:57:55.833Z,45
2017-05-19T06:58:55.826Z,45
2017-05-19T06:59:55.507Z,45
2017-05-19T07:00:55.783Z,50
2017-05-19T07:01:55.474Z,50
2017-05-19T07:02:55.762Z,50
2017-05-19T07:03:55.825Z,50
2017-05-19T07:04:56.042Z,55
2017-05-19T07:05:55.804Z,55
2017-05-19T07:06:55.817Z,55
2017-05-19T07:07:55.674Z,60
2017-05-19T07:08:55.397Z,60
2017-05-19T07:09:55.431Z,60
2017-05-19T07:10:55.385Z,65
2017-05-19T07:11:55.329Z,65
2017-05-19T07:12:55.612Z,65
2017-05-19T07:13:55.901Z,70
2017-05-19T07:14:55.582Z,70
2017-05-19T07:15:55.988Z,75
2017-05-19T07:16:55.544Z,75
2017-05-19T07:17:55.568Z,75
2017-05-19T07:18:55.553Z,75
2017-05-19T07:19:55.618Z,75
2017-05-19T07:20:55.201Z,80
2017-05-19T07:21:55.486Z,80
2017-05-19T07:22:55.451Z,80
2017-05-19T07:23:55.506Z,85
2017-05-19T07:24:55.455Z,85
2017-05-19T07:25:55.481Z,85
2017-05-19T07:26:55.401Z,85
2017-05-19T07:27:55.725Z,85
2017-05-19T07:28:55.067Z,80
2017-05-19T07:29:55.430Z,75
2017-05-19T07:30:55.342Z,60
2017-05-19T07:31:55.388Z,50
2017-05-19T07:32:54.754Z,45
2017-05-19T07:33:55.360Z,40
2017-05-19T07:34:55.585Z,55
2017-05-19T07:35:55.682Z,60
2017-05-19T07:36:55.246Z,60
2017-05-19T07:37:55.603Z,65
2017-05-19T07:38:55.264Z,65
2017-05-19T07:39:55.547Z,60
2017-05-19T07:40:55.514Z,60
2017-05-19T07:41:55.522Z,65
2017-05-19T07:42:55.514Z,60
2017-05-19T07:43:55.478Z,60
2017-05-19T07:44:54.531Z,65
2017-05-19T07:45:54.873Z,70
2017-05-19T07:46:55.495Z,70
2017-05-19T07:47:55.405Z,75
2017-05-19T07:48:55.427Z,75
2017-05-19T07:49:54.781Z,70
2017-05-19T07:50:55.384Z,70
2017-05-19T07:51:55.381Z,65
2017-05-19T07:52:55.025Z,65
2017-05-19T07:53:54.754Z,55
2017-05-19T07:54:55.016Z,50
2017-05-19T07:55:54.979Z,55
2017-05-19T07:56:55.278Z,55
2017-05-19T07:57:54.985Z,50
2017-05-19T07:58:54.934Z,50
2017-05-19T07:59:55.277Z,50
2017-05-19T08:00:55.217Z,50
2017-05-19T08:01:54.593Z,45
2017-05-19T08:02:54.871Z,50
2017-05-19T08:03:54.872Z,55
2017-05-19T08:04:55.161Z,60
2017-05-19T08:05:54.912Z,55
2017-05-19T08:06:54.839Z,60
2017-05-19T08:07:54.496Z,55
2017-05-19T08:08:54.562Z,55
2017-05-19T08:09:55.103Z,55
2017-05-19T08:10:55.053Z,55
2017-05-19T08:11:54.444Z,55
2017-05-19T08:12:55.043Z,55
2017-05-19T08:13:54.725Z,60
2017-05-19T08:14:54.397Z,65
2017-05-19T08:15:54.970Z,65
2017-05-19T08:16:54.690Z,60
2017-05-19T08:17:54.961Z,60
2017-05-19T08:18:54.962Z,60
2017-05-19T08:19:54.949Z,65
2017-05-19T08:20:54.901Z,65
2017-05-19T08:21:54.909Z,65
2017-05-19T08:22:54.591Z,65
2017-05-19T08:23:54.865Z,65
2017-05-19T08:24:54.233Z,65
2017-05-19T08:25:54.822Z,70
2017-05-19T08:26:54.825Z,70
2017-05-19T08:27:54.193Z,70
2017-05-19T08:28:54.543Z,70
2017-05-19T08:29:54.157Z,70
2017-05-19T08:30:54.757Z,70
2017-05-19T08:31:54.454Z,70
2017-05-19T08:32:54.417Z,70
2017-05-19T08:33:53.780Z,75
2017-05-19T08:34:54.492Z,70
2017-05-19T08:35:54.362Z,75
2017-05-19T08:36:54.342Z,70
2017-05-19T08:37:54.445Z,65
2017-05-19T08:38:54.001Z,70
2017-05-19T08:39:53.702Z,75
2017-05-19T08:40:54.294Z,70
2017-05-19T08:41:54.356Z,70
2017-05-19T08:42:54.256Z,75
2017-05-19T08:43:53.993Z,75
2017-05-19T08:44:54.285Z,75
2017-05-19T08:45:53.903Z,75
2017-05-19T08:46:54.229Z,75
2017-05-19T08:47:54.492Z,70
2017-05-19T08:48:54.194Z,70
2017-05-19T08:49:54.504Z,70
2017-05-19T08:50:54.443Z,70
2017-05-19T08:51:54.420Z,70
2017-05-19T08:52:54.236Z,70
2017-05-19T08:53:53.787Z,75
2017-05-19T08:54:54.063Z,70
2017-05-19T08:55:53.751Z,75
2017-05-19T08:56:54.054Z,75
2017-05-19T08:57:54.036Z,80
2017-05-19T08:58:54.330Z,75
2017-05-19T08:59:54.434Z,80
2017-05-19T09:00:53.973Z,70
2017-05-19T09:01:54.053Z,70
2017-05-19T09:02:53.325Z,65
2017-05-19T09:03:54.033Z,65
2017-05-19T09:04:54.227Z,60
2017-05-19T09:05:54.224Z,50
2017-05-19T09:06:53.933Z,50
2017-05-19T09:07:53.569Z,50
2017-05-19T09:08:53.685Z,55
2017-05-19T09:09:54.195Z,60
2017-05-19T09:10:53.817Z,65
2017-05-19T09:11:53.535Z,70
2017-05-19T09:12:54.194Z,70
2017-05-19T09:13:54.134Z,70
2017-05-19T09:14:53.904Z,70
2017-05-19T09:15:54.073Z,75
2017-05-19T09:16:53.405Z,75
2017-05-19T09:17:53.103Z,70
2017-05-19T09:18:54.153Z,70
2017-05-19T09:19:53.995Z,70
2017-05-19T09:20:53.519Z,80
2017-05-19T09:21:53.324Z,90
2017-05-19T09:22:53.424Z,95
2017-05-19T09:23:53.946Z,95
2017-05-19T09:24:53.603Z,95
2017-05-19T09:25:53.575Z,95
2017-05-19T09:26:53.386Z,95
2017-05-19T09:27:53.886Z,95
2017-05-19T09:28:53.899Z,100
2017-05-19T09:29:53.539Z,100
2017-05-19T09:30:53.638Z,100
2017-05-19T09:31:53.225Z,100
2017-05-19T09:32:53.544Z,100
2017-05-19T09:33:53.181Z,100
2017-05-19T09:34:53.458Z,100
2017-05-19T09:35:53.453Z,100
2017-05-19T09:36:53.414Z,100
2017-05-19T09:37:53.412Z,100
2017-05-19T09:38:53.764Z,100
2017-05-19T09:39:53.705Z,100
2017-05-19T09:40:53.064Z,100
2017-05-19T09:41:53.042Z,100
2017-05-19T09:42:53.313Z,100
2017-05-19T09:43:53.627Z,100
2017-05-19T09:44:52.682Z,100
2017-05-19T09:45:53.284Z,105
2017-05-19T09:46:53.595Z,105
2017-05-19T09:47:53.654Z,105
2017-05-19T09:48:53.558Z,105
2017-05-19T09:49:53.555Z,105
2017-05-19T09:50:53.264Z,105
2017-05-19T09:51:53.514Z,105
2017-05-19T09:52:52.575Z,105
2017-05-19T09:53:52.554Z,105
2017-05-19T09:54:53.185Z,105
2017-05-19T09:55:53.124Z,105
2017-05-19T09:56:53.121Z,105
2017-05-19T09:57:53.131Z,105
2017-05-19T09:58:53.405Z,110
2017-05-19T09:59:53.384Z,110
2017-05-19T10:00:53.069Z,115
2017-05-19T10:01:53.047Z,115
2017-05-19T10:02:53.045Z,120
2017-05-19T10:03:53.034Z,120
2017-05-19T10:04:52.436Z,125
2017-05-19T10:05:53.285Z,130
2017-05-19T10:06:53.256Z,130
2017-05-19T10:07:52.948Z,130
2017-05-19T10:08:52.949Z,125
2017-05-19T10:09:53.226Z,120
2017-05-19T10:10:53.071Z,120
2017-05-19T10:11:52.978Z,120
2017-05-19T10:12:52.887Z,120
2017-05-19T10:13:53.166Z,120
2017-05-19T10:14:53.137Z,125
2017-05-19T10:15:52.995Z,125
2017-05-19T10:16:53.126Z,130
2017-05-19T10:17:52.819Z,130
2017-05-19T10:18:52.502Z,135
2017-05-19T10:19:53.105Z,140
2017-05-19T10:20:52.852Z,145
2017-05-19T10:21:53.065Z,145
2017-05-19T10:22:53.116Z,150
2017-05-19T10:23:52.724Z,150
2017-05-19T10:24:53.036Z,155
2017-05-19T10:25:52.992Z,160
2017-05-19T10:26:52.998Z,165
2017-05-19T10:27:52.983Z,160
2017-05-19T10:28:52.426Z,160
2017-05-19T10:29:52.400Z,160
2017-05-19T10:30:52.948Z,155
2017-05-19T10:31:52.916Z,155
2017-05-19T10:32:52.580Z,155
2017-05-19T10:33:52.665Z,150
2017-05-19T10:34:52.559Z,145
2017-05-19T10:35:52.535Z,140
2017-05-19T10:36:52.596Z,140
2017-05-19T10:37:52.554Z,140
2017-05-19T10:38:52.497Z,140
2017-05-19T10:39:51.866Z,130
2017-05-19T10:40:51.862Z,130
2017-05-19T10:41:52.510Z,125
2017-05-19T10:42:52.736Z,120
2017-05-19T10:43:52.509Z,120
2017-05-19T10:44:51.795Z,120
2017-05-19T10:45:52.471Z,120
2017-05-19T10:46:52.406Z,115
2017-05-19T10:47:52.054Z,110
2017-05-19T10:48:52.473Z,115
2017-05-19T10:49:52.745Z,115
2017-05-19T10:50:52.026Z,115
2017-05-19T10:51:52.612Z,110
2017-05-19T10:52:52.394Z,110
2017-05-19T10:53:52.702Z,105
2017-05-19T10:54:51.974Z,105
2017-05-19T10:55:52.541Z,110
2017-05-19T10:56:52.565Z,110
2017-05-19T10:57:52.304Z,105
2017-05-19T10:58:52.514Z,105
2017-05-19T10:59:52.292Z,100
2017-05-19T11:00:52.286Z,95
2017-05-19T11:01:51.896Z,90
2017-05-19T11:02:52.226Z,90
2017-05-19T11:03:52.134Z,90
2017-05-19T11:04:51.797Z,85
2017-05-19T11:05:51.805Z,75
2017-05-19T11:06:52.404Z,70
2017-05-19T11:07:51.784Z,70
2017-05-19T11:08:52.433Z,75
2017-05-19T11:09:51.443Z,75
2017-05-19T11:10:52.512Z,75
2017-05-19T11:11:52.060Z,75
2017-05-19T11:12:51.687Z,75
2017-05-19T11:13:51.456Z,75
2017-05-19T11:14:52.339Z,65
2017-05-19T11:15:51.435Z,60
2017-05-19T11:16:51.948Z,60
2017-05-19T11:17:52.303Z,60
2017-05-19T11:18:52.259Z,50
2017-05-19T11:19:51.934Z,45
2017-05-19T11:20:51.877Z,45
2017-05-19T11:21:52.224Z,45
2017-05-19T11:22:51.565Z,45
2017-05-19T11:23:51.525Z,45
2017-05-19T11:24:51.531Z,45
2017-05-19T11:25:51.813Z,45
2017-05-19T11:26:51.783Z,45
2017-05-19T11:27:51.190Z,45
2017-05-19T11:28:51.478Z,45
2017-05-19T11:29:51.435Z,45
2017-05-19T11:30:51.752Z,45
2017-05-19T11:31:51.417Z,45
2017-05-19T11:32:51.410Z,45
2017-05-19T11:33:51.681Z,45
2017-05-19T11:34:51.725Z,45
2017-05-19T11:35:51.401Z,45
2017-05-19T11:36:51.683Z,45
2017-05-19T11:37:51.036Z,45
2017-05-19T11:38:51.027Z,40
2017-05-19T11:39:51.903Z,40
2017-05-19T11:40:51.285Z,40
2017-05-19T11:41:51.934Z,40
2017-05-19T11:42:51.567Z,40
2017-05-19T11:43:51.844Z,40
2017-05-19T11:44:51.522Z,40
2017-05-19T11:45:51.496Z,40
2017-05-19T11:46:51.502Z,40
2017-05-19T11:47:51.484Z,40
2017-05-19T11:48:51.467Z,40
2017-05-19T11:49:51.439Z,40
2017-05-19T11:50:50.822Z,40
2017-05-19T11:51:51.406Z,45
2017-05-19T11:52:51.705Z,45
2017-05-19T11:53:51.394Z,45
2017-05-19T11:54:51.697Z,45
2017-05-19T11:55:50.808Z,45
2017-05-19T11:56:51.635Z,45
2017-05-19T11:57:51.353Z,45
2017-05-19T11:58:51.044Z,45
2017-05-19T11:59:51.590Z,40
2017-05-19T12:00:51.274Z,40
2017-05-19T12:01:51.645Z,40
2017-05-19T12:02:51.556Z,45
2017-05-19T12:03:50.701Z,45
2017-05-19T12:04:51.214Z,45
2017-05-19T12:05:50.645Z,45
2017-05-19T12:06:51.184Z,50
2017-05-19T12:07:50.856Z,50
2017-05-19T12:08:50.868Z,50
2017-05-19T12:09:51.455Z,45
2017-05-19T12:10:50.617Z,45
2017-05-19T12:11:51.417Z,45
2017-05-19T12:12:50.787Z,50
2017-05-19T12:13:50.764Z,50
2017-05-19T12:14:50.765Z,45
2017-05-19T12:15:50.462Z,45
2017-05-19T12:16:50.784Z,45
2017-05-19T12:17:51.023Z,45
2017-05-19T12:18:51.312Z,45
2017-05-19T12:19:50.787Z,50
2017-05-19T12:20:51.284Z,50
2017-05-19T12:21:51.304Z,50
2017-05-19T12:22:51.255Z,50
2017-05-19T12:23:51.252Z,45
2017-05-19T12:24:50.660Z,45
2017-05-19T12:25:50.932Z,40
2017-05-19T12:26:50.873Z,45
2017-05-19T12:27:50.896Z,45
2017-05-19T12:28:50.907Z,45
2017-05-19T12:29:50.874Z,40
2017-05-19T12:30:51.131Z,40
2017-05-19T12:31:50.575Z,35
2017-05-19T12:32:50.490Z,35
2017-05-19T12:33:50.538Z,30
2017-05-19T12:34:50.526Z,30
2017-05-19T12:35:50.475Z,30
2017-05-19T12:36:50.795Z,30
2017-05-19T12:37:50.745Z,30
2017-05-19T12:38:50.740Z,35
2017-05-19T12:39:50.520Z,35
2017-05-19T12:40:50.983Z,30
2017-05-19T12:41:50.645Z,30
2017-05-19T12:42:50.675Z,30
2017-05-19T12:43:50.922Z,35
2017-05-19T12:44:50.590Z,40
2017-05-19T12:45:50.588Z,50
2017-05-19T12:46:50.584Z,55
2017-05-19T12:47:50.592Z,55
2017-05-19T12:48:50.573Z,55
2017-05-19T12:49:50.558Z,55
2017-05-19T12:50:50.816Z,55
2017-05-19T12:51:50.509Z,55
2017-05-19T12:52:50.925Z,55
2017-05-19T12:53:50.806Z,55
2017-05-19T12:54:50.781Z,50
2017-05-19T12:55:50.932Z,50
2017-05-19T12:56:50.738Z,50
2017-05-19T12:57:50.727Z,50
2017-05-19T12:58:50.393Z,50
2017-05-19T12:59:50.785Z,45
2017-05-19T13:00:50.696Z,40
2017-05-19T13:01:50.662Z,40
2017-05-19T13:02:50.714Z,45
2017-05-19T13:03:50.376Z,45
2017-05-19T13:04:50.739Z,35
2017-05-19T13:05:50.693Z,30
2017-05-19T13:06:50.574Z,25
2017-05-19T13:07:50.596Z,25
2017-05-19T13:08:50.547Z,20
2017-05-19T13:09:50.216Z,20
2017-05-19T13:10:50.536Z,20
2017-05-19T13:11:50.529Z,20
2017-05-19T13:12:50.185Z,25
2017-05-19T13:13:50.540Z,35
2017-05-19T13:14:50.145Z,40
2017-05-19T13:15:50.112Z,45
2017-05-19T13:16:50.092Z,45
2017-05-19T13:17:50.083Z,45
2017-05-19T13:18:50.503Z,50
2017-05-19T13:19:50.045Z,55
2017-05-19T13:20:50.167Z,55
2017-05-19T13:21:49.733Z,55
2017-05-19T13:22:50.055Z,55
2017-05-19T13:23:49.999Z,60
2017-05-19T13:24:50.018Z,60
2017-05-19T13:25:49.956Z,60
2017-05-19T13:26:50.035Z,60
2017-05-19T13:27:50.254Z,60
2017-05-19T13:28:49.947Z,60
2017-05-19T13:29:49.581Z,60
2017-05-19T13:30:50.332Z,60
2017-05-19T13:31:50.229Z,55
2017-05-19T13:32:49.940Z,50
2017-05-19T13:33:50.149Z,50
2017-05-19T13:34:50.193Z,45
2017-05-19T13:35:50.182Z,45
2017-05-19T13:36:50.159Z,45
2017-05-19T13:37:50.096Z,40
2017-05-19T13:38:49.514Z,35
2017-05-19T13:39:50.082Z,30
2017-05-19T13:40:49.735Z,30
2017-05-19T13:41:50.081Z,30
2017-05-19T13:42:49.686Z,25
2017-05-19T13:43:50.003Z,20
2017-05-19T13:44:49.721Z,20
2017-05-19T13:45:49.657Z,15
2017-05-19T13:46:49.348Z,15
2017-05-19T13:47:49.313Z,20
2017-05-19T13:48:49.608Z,20
2017-05-19T13:49:49.965Z,20
2017-05-19T13:50:49.893Z,20
2017-05-19T13:51:48.935Z,20
2017-05-19T13:52:49.542Z,20
2017-05-19T13:53:48.970Z,25
2017-05-19T13:54:49.513Z,30
2017-05-19T13:55:49.990Z,30
2017-05-19T13:56:49.266Z,35
2017-05-19T13:57:49.790Z,35
2017-05-19T13:58:49.450Z,35
2017-05-19T13:59:49.764Z,35
2017-05-19T14:00:49.154Z,35
2017-05-19T14:01:49.406Z,40
2017-05-19T14:02:49.436Z,45
2017-05-19T14:03:49.655Z,50
2017-05-19T14:04:49.362Z,60
2017-05-19T14:05:49.314Z,65
2017-05-19T14:06:49.314Z,70
2017-05-19T14:07:49.595Z,65
2017-05-19T14:08:49.298Z,60
2017-05-19T14:09:49.317Z,50
2017-05-19T14:10:49.264Z,45
2017-05-19T14:11:49.243Z,35
2017-05-19T14:12:49.569Z,30
2017-05-19T14:13:49.275Z,25
2017-05-19T14:14:49.211Z,20
2017-05-19T14:15:49.557Z,25
2017-05-19T14:16:49.171Z,20
2017-05-19T14:17:49.464Z,15
2017-05-19T14:18:48.864Z,10
2017-05-19T14:19:49.415Z,10
2017-05-19T14:20:49.107Z,15